Time;durP1;ratioP1;P1;durP2;ratioP2;P2;SDS_P1;SDS_P2;PMS_P1;PMS_P2;Temp;Humidity;BMP_temperature;BMP_pressure;BME280_temperature;BME280_humidity;BME280_pressure;Samples;Min_cycle;Max_cycle;Signal;HPM_P1;HPM_P2
2021/12/30 00:00:51;;;;;;;3.35;0.70;;;12.20;99.90;;;;;;5031541;28;20018;-53
2021/12/30 00:03:17;;;;;;;0.88;0.60;;;12.20;99.90;;;;;;5031332;28;20021;-52
2021/12/30 00:05:43;;;;;;;1.30;0.90;;;12.30;99.90;;;;;;5032000;28;20074;-50
2021/12/30 00:08:09;;;;;;;0.95;0.70;;;12.30;99.90;;;;;;5031613;28;20511;-51
2021/12/30 00:10:35;;;;;;;0.88;0.80;;;12.40;99.90;;;;;;5031294;28;20108;-47
2021/12/30 00:13:00;;;;;;;2.05;0.90;;;12.40;99.90;;;;;;5032496;28;20025;-52
2021/12/30 00:15:26;;;;;;;1.35;0.75;;;12.40;99.90;;;;;;5032374;28;20029;-47
2021/12/30 00:17:52;;;;;;;1.15;0.77;;;12.40;99.90;;;;;;5032469;28;20504;-49
2021/12/30 00:20:18;;;;;;;1.88;0.82;;;12.50;99.90;;;;;;5030763;28;20037;-52
2021/12/30 00:22:44;;;;;;;0.63;0.63;;;12.50;99.90;;;;;;5032269;28;20037;-50
2021/12/30 00:25:11;;;;;;;2.65;0.90;;;12.60;99.90;;;;;;5032284;28;20017;-53
2021/12/30 00:27:38;;;;;;;0.77;0.73;;;12.60;99.90;;;;;;5031735;28;20041;-49
2021/12/30 00:30:07;;;;;;;2.70;0.80;;;12.60;99.90;;;;;;5030800;28;20045;-49
2021/12/30 00:32:33;;;;;;;1.23;0.90;;;12.60;99.90;;;;;;5014696;28;20397;-50
2021/12/30 00:34:59;;;;;;;1.85;1.30;;;12.60;99.90;;;;;;5031032;28;20029;-48
2021/12/30 00:37:24;;;;;;;2.00;1.08;;;12.60;99.90;;;;;;5032083;28;20025;-53
2021/12/30 00:39:50;;;;;;;1.45;0.80;;;12.60;99.90;;;;;;5030583;28;20109;-50
2021/12/30 00:42:16;;;;;;;2.92;0.88;;;12.50;99.90;;;;;;5030781;28;20028;-51
2021/12/30 00:44:41;;;;;;;1.13;0.80;;;12.50;99.90;;;;;;5032026;28;20025;-47
2021/12/30 00:47:07;;;;;;;3.60;0.80;;;12.40;99.90;;;;;;5032029;28;20026;-51
2021/12/30 00:49:33;;;;;;;2.10;0.77;;;12.40;99.90;;;;;;5030281;28;20029;-50
2021/12/30 00:51:59;;;;;;;1.65;0.82;;;12.40;99.90;;;;;;5031903;28;20075;-49
2021/12/30 00:54:24;;;;;;;4.75;1.02;;;12.40;99.90;;;;;;5031819;28;20401;-48
2021/12/30 00:56:51;;;;;;;1.00;0.73;;;12.40;99.90;;;;;;5030763;28;20029;-50
2021/12/30 00:59:16;;;;;;;2.00;1.00;;;12.30;99.90;;;;;;5031728;28;20543;-49
2021/12/30 01:01:42;;;;;;;4.18;0.95;;;12.30;99.90;;;;;;5030873;28;20025;-49
2021/12/30 01:04:08;;;;;;;2.00;1.05;;;12.30;99.90;;;;;;5030884;28;20025;-50
2021/12/30 01:06:34;;;;;;;3.60;1.60;;;12.30;99.90;;;;;;5030564;28;20065;-50
2021/12/30 01:09:00;;;;;;;6.22;1.10;;;12.20;99.90;;;;;;5030305;28;20021;-53
2021/12/30 01:11:26;;;;;;;6.15;0.90;;;12.20;99.90;;;;;;5031812;28;20060;-49
2021/12/30 01:14:02;;;;;;;4.25;1.17;;;12.20;99.90;;;;;;5030651;28;20026;-47
2021/12/30 01:16:31;;;;;;;4.13;1.15;;;12.20;99.90;;;;;;5030577;28;20030;-47
2021/12/30 01:21:32;;;;;;;7.95;1.33;;;12.20;99.90;;;;;;5031364;28;20022;-49
2021/12/30 01:23:58;;;;;;;3.88;1.30;;;12.20;99.90;;;;;;5031713;28;20671;-45
2021/12/30 01:26:24;;;;;;;3.97;1.25;;;12.20;99.90;;;;;;5031363;28;20057;-49
2021/12/30 01:28:50;;;;;;;3.63;1.33;;;12.20;99.90;;;;;;5031279;28;20030;-49
2021/12/30 01:31:17;;;;;;;4.57;1.50;;;12.20;99.90;;;;;;5030024;28;20079;-50
2021/12/30 01:33:44;;;;;;;6.05;1.27;;;12.20;99.90;;;;;;5031372;28;20032;-48
2021/12/30 01:36:11;;;;;;;9.23;1.60;;;12.30;99.90;;;;;;5030140;28;20026;-47
2021/12/30 01:38:37;;;;;;;6.05;1.65;;;12.40;99.90;;;;;;5031417;28;20068;-53
2021/12/30 01:41:04;;;;;;;6.20;2.20;;;12.30;99.90;;;;;;5031096;28;20109;-52
2021/12/30 01:43:30;;;;;;;7.28;1.77;;;12.30;99.90;;;;;;5031240;28;20013;-49
2021/12/30 01:45:56;;;;;;;3.13;1.65;;;12.30;99.90;;;;;;5031267;28;20100;-53
2021/12/30 01:48:22;;;;;;;11.00;1.70;;;12.30;99.90;;;;;;5031361;28;20101;-49
2021/12/30 01:50:49;;;;;;;4.03;1.23;;;12.20;99.90;;;;;;5031156;28;20053;-49
2021/12/30 01:53:15;;;;;;;3.83;1.77;;;12.20;99.90;;;;;;5031268;28;20025;-50
2021/12/30 01:55:41;;;;;;;5.40;2.53;;;12.20;99.90;;;;;;5031108;28;20072;-51
2021/12/30 01:58:08;;;;;;;4.40;1.30;;;12.20;99.90;;;;;;5013629;28;20120;-49
2021/12/30 02:00:36;;;;;;;5.38;1.52;;;12.20;99.90;;;;;;5029451;28;20079;-51
2021/12/30 02:03:02;;;;;;;3.20;1.45;;;12.20;99.90;;;;;;5029975;28;20036;-48
2021/12/30 02:05:28;;;;;;;2.80;1.30;;;12.30;99.90;;;;;;5031100;28;20521;-53
2021/12/30 02:07:55;;;;;;;4.78;1.20;;;12.30;99.90;;;;;;5031377;28;20025;-47
2021/12/30 02:10:21;;;;;;;8.63;1.70;;;12.20;99.90;;;;;;5030845;28;20615;-50
2021/12/30 02:12:46;;;;;;;3.65;1.75;;;12.20;99.90;;;;;;5029897;28;20382;-45
2021/12/30 02:15:15;;;;;;;10.07;2.25;;;12.10;99.90;;;;;;5031082;28;20033;-46
2021/12/30 02:17:41;;;;;;;4.68;1.48;;;12.10;99.90;;;;;;5031047;28;20160;-50
2021/12/30 02:20:11;;;;;;;5.00;1.40;;;12.00;99.90;;;;;;5030865;28;20104;-47
2021/12/30 02:22:36;;;;;;;4.35;1.35;;;12.10;99.90;;;;;;5030957;28;20030;-49
2021/12/30 02:25:04;;;;;;;3.92;1.45;;;12.10;99.90;;;;;;5029742;28;20029;-48
2021/12/30 02:27:30;;;;;;;3.13;1.13;;;12.10;99.90;;;;;;5030510;28;20374;-53
2021/12/30 02:29:56;;;;;;;1.95;1.50;;;12.00;99.90;;;;;;5030516;28;20034;-52
2021/12/30 02:32:22;;;;;;;4.30;1.00;;;11.90;99.90;;;;;;5029714;28;20048;-46
2021/12/30 02:34:49;;;;;;;5.03;1.70;;;11.90;99.90;;;;;;5033652;28;20650;-50
2021/12/30 02:37:17;;;;;;;3.55;1.50;;;11.90;99.90;;;;;;5033035;28;20037;-51
2021/12/30 02:39:47;;;;;;;2.80;1.00;;;11.90;99.90;;;;;;5033776;28;20045;-49
2021/12/30 02:42:13;;;;;;;5.57;2.05;;;12.00;99.90;;;;;;5034358;28;20060;-47
2021/12/30 02:44:38;;;;;;;4.50;1.00;;;12.00;99.90;;;;;;5032834;28;20022;-51
2021/12/30 02:47:04;;;;;;;6.53;1.73;;;12.00;99.90;;;;;;5034165;28;20017;-52
2021/12/30 02:49:30;;;;;;;3.63;1.30;;;12.00;99.90;;;;;;5033812;28;20037;-46
2021/12/30 02:51:55;;;;;;;3.40;1.10;;;12.00;99.90;;;;;;5034045;28;20040;-45
2021/12/30 02:54:21;;;;;;;2.40;0.98;;;12.00;99.90;;;;;;5034010;28;20499;-51
2021/12/30 02:56:47;;;;;;;7.57;1.90;;;12.10;99.90;;;;;;5032653;28;20056;-49
2021/12/30 02:59:14;;;;;;;6.97;1.67;;;12.10;99.90;;;;;;5032389;28;20124;-47
2021/12/30 03:01:40;;;;;;;5.00;1.25;;;12.10;99.90;;;;;;5033017;28;20564;-47
2021/12/30 03:04:06;;;;;;;3.88;1.00;;;12.00;99.90;;;;;;5034250;28;20045;-51
2021/12/30 03:06:32;;;;;;;5.45;1.48;;;12.00;99.90;;;;;;5033870;28;20100;-51
2021/12/30 03:08:58;;;;;;;4.63;1.52;;;12.00;99.90;;;;;;5032416;28;20056;-48
2021/12/30 03:11:25;;;;;;;5.00;1.80;;;11.90;99.90;;;;;;5033543;28;20025;-50
2021/12/30 03:13:53;;;;;;;3.50;1.10;;;11.90;99.90;;;;;;5032341;28;20036;-50
2021/12/30 03:16:36;;;;;;;5.80;1.15;;;11.80;99.90;;;;;;5033524;28;20030;-47
2021/12/30 03:19:02;;;;;;;16.77;2.15;;;11.90;99.90;;;;;;5033568;28;20500;-52
2021/12/30 03:21:29;;;;;;;6.47;1.85;;;11.90;99.90;;;;;;5033238;28;20033;-49
2021/12/30 03:23:58;;;;;;;3.33;1.55;;;11.80;99.90;;;;;;5033631;28;20021;-50
2021/12/30 03:26:24;;;;;;;8.73;1.60;;;11.80;99.90;;;;;;5033345;28;20400;-49
2021/12/30 03:28:50;;;;;;;6.78;1.60;;;11.70;99.90;;;;;;5033360;28;20138;-48
2021/12/30 03:31:18;;;;;;;6.53;2.08;;;11.80;99.90;;;;;;5033201;28;20524;-48
2021/12/30 03:33:44;;;;;;;5.50;1.90;;;11.70;99.90;;;;;;5031917;28;20026;-47
2021/12/30 03:36:11;;;;;;;4.82;1.48;;;11.70;99.90;;;;;;5031831;28;20529;-48
2021/12/30 03:38:39;;;;;;;12.88;3.10;;;11.60;99.90;;;;;;5033625;28;20035;-47
2021/12/30 03:41:06;;;;;;;3.10;1.15;;;11.60;99.90;;;;;;5031691;28;20029;-47
2021/12/30 03:43:33;;;;;;;7.07;1.85;;;11.60;99.90;;;;;;5033130;28;20408;-47
2021/12/30 03:45:59;;;;;;;6.68;1.63;;;11.50;99.90;;;;;;5032660;28;20026;-48
2021/12/30 03:48:31;;;;;;;10.18;1.58;;;11.50;99.90;;;;;;5033087;28;20036;-49
2021/12/30 03:50:57;;;;;;;6.80;1.60;;;11.40;99.90;;;;;;5032975;28;20087;-48
2021/12/30 03:53:23;;;;;;;7.03;1.80;;;11.40;99.90;;;;;;5033239;28;20108;-48
2021/12/30 03:55:51;;;;;;;5.97;1.73;;;11.40;99.90;;;;;;5033031;28;20524;-51
2021/12/30 03:58:17;;;;;;;5.65;1.25;;;11.40;99.90;;;;;;5031903;28;20036;-48
2021/12/30 04:00:43;;;;;;;3.38;1.30;;;11.30;99.90;;;;;;5033583;28;20022;-49
2021/12/30 04:03:08;;;;;;;4.43;1.40;;;11.30;99.90;;;;;;5031426;28;20044;-49
2021/12/30 04:05:34;;;;;;;5.40;1.70;;;11.40;99.90;;;;;;5032630;28;20384;-48
2021/12/30 04:08:00;;;;;;;11.85;1.98;;;11.40;99.90;;;;;;5032773;28;20444;-46
2021/12/30 04:10:25;;;;;;;5.85;1.42;;;11.40;99.90;;;;;;5031037;28;20027;-50
2021/12/30 04:12:52;;;;;;;8.70;1.73;;;11.40;99.90;;;;;;5032469;28;20397;-48
2021/12/30 04:15:18;;;;;;;6.97;2.10;;;11.40;99.90;;;;;;5032508;28;20033;-47
2021/12/30 04:17:44;;;;;;;5.18;1.38;;;11.40;99.90;;;;;;5031118;28;20030;-48
2021/12/30 04:20:12;;;;;;;8.50;1.60;;;11.40;99.90;;;;;;5033878;28;20040;-47
2021/12/30 04:22:40;;;;;;;5.53;1.75;;;11.40;99.90;;;;;;5033872;28;20053;-49
2021/12/30 04:25:09;;;;;;;7.68;2.35;;;11.40;99.90;;;;;;5032457;28;20076;-51
2021/12/30 04:27:35;;;;;;;4.22;1.55;;;11.40;99.90;;;;;;5079467;22;20040;-46
2021/12/30 04:30:01;;;;;;;6.63;2.22;;;11.50;99.90;;;;;;5054299;28;20043;-46
2021/12/30 04:32:26;;;;;;;7.03;1.85;;;11.50;99.90;;;;;;5054004;28;20028;-48
2021/12/30 04:34:52;;;;;;;6.57;1.73;;;11.50;99.90;;;;;;5054129;28;20016;-46
2021/12/30 04:37:17;;;;;;;5.82;1.77;;;11.50;99.90;;;;;;5071942;28;20107;-45
2021/12/30 04:39:43;;;;;;;12.02;2.30;;;11.50;99.90;;;;;;5071717;28;20029;-43
2021/12/30 04:42:09;;;;;;;5.70;1.42;;;11.50;99.90;;;;;;5071919;28;20032;-50
2021/12/30 04:44:34;;;;;;;7.47;1.67;;;11.40;99.90;;;;;;5071657;28;20044;-51
2021/12/30 04:47:00;;;;;;;11.60;2.25;;;11.40;99.90;;;;;;5071709;28;20424;-44
2021/12/30 04:49:26;;;;;;;8.85;2.45;;;11.50;99.90;;;;;;5071317;28;20557;-48
2021/12/30 04:51:52;;;;;;;3.60;1.75;;;11.40;99.90;;;;;;5071760;28;20020;-47
2021/12/30 04:54:19;;;;;;;6.05;1.60;;;11.40;99.90;;;;;;5053847;28;20036;-47
2021/12/30 04:56:45;;;;;;;8.07;1.73;;;11.30;99.90;;;;;;5070813;28;20021;-50
2021/12/30 04:59:11;;;;;;;3.60;1.58;;;11.40;99.90;;;;;;5071443;28;20056;-46
2021/12/30 05:01:38;;;;;;;3.65;1.40;;;11.40;99.90;;;;;;5071572;28;20055;-49
2021/12/30 05:04:04;;;;;;;7.93;1.77;;;11.40;99.90;;;;;;5071796;28;20387;-48
2021/12/30 05:06:32;;;;;;;5.63;1.73;;;11.40;99.90;;;;;;5054084;28;20392;-47
2021/12/30 05:08:58;;;;;;;8.05;2.13;;;11.40;99.90;;;;;;5071752;28;20550;-52
2021/12/30 05:11:24;;;;;;;7.57;1.60;;;11.30;99.90;;;;;;5071268;28;20032;-45
2021/12/30 05:13:49;;;;;;;9.27;1.83;;;11.30;99.90;;;;;;5053571;28;20024;-52
2021/12/30 05:16:16;;;;;;;11.65;2.45;;;11.30;99.90;;;;;;5071378;28;20025;-49
2021/12/30 05:18:41;;;;;;;10.35;2.50;;;11.20;99.90;;;;;;5071858;28;20031;-48
2021/12/30 05:21:07;;;;;;;5.63;2.33;;;11.20;99.90;;;;;;5071165;28;20020;-46
2021/12/30 05:23:33;;;;;;;11.80;2.75;;;11.20;99.90;;;;;;5071521;28;20395;-49
2021/12/30 05:25:59;;;;;;;6.70;2.50;;;11.20;99.90;;;;;;5053325;28;20039;-48
2021/12/30 05:28:24;;;;;;;5.95;2.97;;;11.20;99.90;;;;;;5070960;28;20048;-47
2021/12/30 05:30:50;;;;;;;9.00;1.85;;;11.20;99.90;;;;;;5071112;28;20035;-49
2021/12/30 05:33:16;;;;;;;5.65;1.65;;;11.30;99.90;;;;;;5071238;28;20109;-50
2021/12/30 05:35:42;;;;;;;8.18;2.70;;;11.30;99.90;;;;;;5071261;28;20059;-45
2021/12/30 05:38:08;;;;;;;8.27;1.70;;;11.40;99.90;;;;;;5053209;28;20053;-48
2021/12/30 05:40:35;;;;;;;6.35;2.08;;;11.50;99.90;;;;;;5071026;28;20403;-49
2021/12/30 05:43:01;;;;;;;3.95;1.83;;;11.50;99.90;;;;;;5071201;28;20372;-47
2021/12/30 05:45:27;;;;;;;5.82;2.17;;;11.50;99.90;;;;;;5071357;28;20024;-45
2021/12/30 05:47:53;;;;;;;6.43;2.03;;;11.70;99.90;;;;;;5071126;28;20025;-47
2021/12/30 05:50:21;;;;;;;6.30;2.78;;;11.80;99.90;;;;;;5070825;28;20076;-46
2021/12/30 05:52:47;;;;;;;7.32;2.30;;;11.80;99.90;;;;;;5053076;28;20373;-47
2021/12/30 05:55:13;;;;;;;6.47;2.58;;;12.00;99.90;;;;;;5071214;28;20066;-47
2021/12/30 05:57:40;;;;;;;5.63;1.95;;;12.00;99.90;;;;;;5070903;28;20464;-46
2021/12/30 06:00:08;;;;;;;3.88;2.10;;;12.00;99.90;;;;;;5071116;28;20032;-45
2021/12/30 06:02:33;;;;;;;4.35;1.95;;;12.10;99.90;;;;;;5072700;28;20503;-46
2021/12/30 06:04:59;;;;;;;11.32;2.72;;;12.10;99.90;;;;;;5075544;28;20037;-45
2021/12/30 06:07:25;;;;;;;5.07;2.75;;;12.20;99.90;;;;;;5054323;28;20150;-50
2021/12/30 06:09:50;;;;;;;3.60;2.55;;;12.20;99.90;;;;;;5075670;28;20111;-44
2021/12/30 06:12:16;;;;;;;3.95;2.03;;;12.20;99.90;;;;;;5075812;28;20151;-45
2021/12/30 06:14:41;;;;;;;7.65;2.20;;;12.10;99.90;;;;;;5056932;28;20507;-46
2021/12/30 06:17:07;;;;;;;2.72;2.28;;;12.20;99.90;;;;;;5057031;28;20025;-48
2021/12/30 06:19:32;;;;;;;3.60;2.25;;;12.20;99.90;;;;;;5056342;28;20028;-48
2021/12/30 06:21:58;;;;;;;5.80;2.42;;;12.20;99.90;;;;;;5074656;28;20150;-50
2021/12/30 06:24:23;;;;;;;3.60;2.50;;;12.20;99.90;;;;;;5074586;28;20020;-50
2021/12/30 06:26:49;;;;;;;7.20;3.13;;;12.20;99.90;;;;;;5056487;28;20021;-45
2021/12/30 06:29:14;;;;;;;4.03;2.67;;;12.20;99.90;;;;;;5055780;28;20492;-47
2021/12/30 06:31:41;;;;;;;3.78;2.40;;;12.20;99.90;;;;;;5074362;28;20097;-50
2021/12/30 06:34:06;;;;;;;6.88;2.83;;;12.20;99.90;;;;;;5074374;28;20056;-46
2021/12/30 06:36:32;;;;;;;6.00;2.22;;;12.20;99.90;;;;;;5056522;28;20052;-49
2021/12/30 06:38:58;;;;;;;7.13;2.85;;;12.10;99.90;;;;;;5074207;28;20024;-51
2021/12/30 06:41:23;;;;;;;9.02;3.05;;;12.10;99.90;;;;;;5056279;28;20017;-49
2021/12/30 06:43:49;;;;;;;2.60;2.00;;;12.10;99.90;;;;;;5074464;28;20052;-47
2021/12/30 06:46:18;;;;;;;4.78;2.58;;;12.00;99.90;;;;;;5056480;28;20485;-45
2021/12/30 06:48:45;;;;;;;2.92;2.25;;;12.00;99.90;;;;;;5074255;28;20021;-46
2021/12/30 06:51:13;;;;;;;3.28;2.00;;;12.00;99.90;;;;;;5074053;28;20108;-50
2021/12/30 06:53:39;;;;;;;3.20;2.35;;;12.10;99.90;;;;;;5074166;28;20016;-46
2021/12/30 06:56:05;;;;;;;2.67;1.50;;;12.10;99.90;;;;;;5074108;28;20036;-45
2021/12/30 06:58:31;;;;;;;4.35;2.05;;;12.10;99.90;;;;;;5055992;28;20024;-48
2021/12/30 07:00:57;;;;;;;1.77;1.67;;;12.20;99.90;;;;;;5073725;28;20028;-47
2021/12/30 07:03:23;;;;;;;1.23;1.13;;;12.30;99.90;;;;;;5074025;28;20013;-48
2021/12/30 07:05:51;;;;;;;2.45;1.20;;;12.40;99.90;;;;;;5056586;28;20021;-45
2021/12/30 07:08:17;;;;;;;1.95;1.10;;;12.50;99.90;;;;;;5074146;28;20020;-46
2021/12/30 07:10:43;;;;;;;0.90;0.90;;;12.60;99.90;;;;;;5073581;28;20135;-45
2021/12/30 07:13:08;;;;;;;2.00;1.02;;;12.60;99.90;;;;;;5073669;28;20391;-45
2021/12/30 07:15:34;;;;;;;1.25;0.95;;;12.70;99.90;;;;;;5056034;28;20029;-50
2021/12/30 07:17:59;;;;;;;0.70;0.70;;;12.80;99.90;;;;;;5073464;28;20024;-45
2021/12/30 07:20:25;;;;;;;0.85;0.80;;;12.80;99.90;;;;;;5072562;28;20029;-50
2021/12/30 07:22:50;;;;;;;1.48;0.50;;;12.80;99.90;;;;;;5073315;28;20103;-53
2021/12/30 07:25:17;;;;;;;0.73;0.73;;;12.80;99.90;;;;;;5073790;28;20435;-48
2021/12/30 07:27:45;;;;;;;1.48;0.63;;;12.90;99.90;;;;;;5073153;28;20052;-46
2021/12/30 07:30:11;;;;;;;1.88;1.15;;;13.00;99.90;;;;;;5073225;28;20024;-47
2021/12/30 07:32:37;;;;;;;1.67;0.77;;;13.00;99.90;;;;;;5055232;28;20024;-52
2021/12/30 07:35:03;;;;;;;2.80;1.10;;;13.10;99.90;;;;;;5073252;28;20039;-45
2021/12/30 07:37:28;;;;;;;1.50;0.82;;;13.10;99.90;;;;;;5055276;28;20422;-45
2021/12/30 07:39:54;;;;;;;0.80;0.80;;;13.10;99.90;;;;;;5072726;28;20456;-46
2021/12/30 07:42:19;;;;;;;0.60;0.60;;;13.10;99.90;;;;;;5073092;28;20407;-47
2021/12/30 07:44:45;;;;;;;0.80;0.80;;;13.20;99.90;;;;;;5068639;28;20024;-48
2021/12/30 07:47:10;;;;;;;0.60;0.60;;;13.20;99.90;;;;;;5058792;28;20025;-44
2021/12/30 07:49:36;;;;;;;1.20;0.60;;;13.20;99.90;;;;;;5069821;28;20853;-48
2021/12/30 07:52:06;;;;;;;0.60;0.60;;;13.30;99.90;;;;;;5054973;28;20508;-45
2021/12/30 07:54:33;;;;;;;0.40;0.40;;;13.30;99.90;;;;;;5071347;28;20044;-50
2021/12/30 07:56:58;;;;;;;0.68;0.68;;;13.40;99.90;;;;;;5052255;28;20067;-53
2021/12/30 07:59:24;;;;;;;0.40;0.40;;;13.50;99.90;;;;;;5072285;28;20630;-46
2021/12/30 08:01:49;;;;;;;0.35;0.35;;;13.50;99.90;;;;;;5041976;28;20489;-47
2021/12/30 08:04:15;;;;;;;0.47;0.47;;;13.60;99.90;;;;;;5053046;28;20029;-49
2021/12/30 08:06:41;;;;;;;0.50;0.50;;;13.60;99.90;;;;;;5066388;28;20082;-52
2021/12/30 08:09:07;;;;;;;0.40;0.40;;;13.70;99.90;;;;;;5072896;28;20029;-47
2021/12/30 08:11:34;;;;;;;0.40;0.40;;;13.70;99.90;;;;;;5063388;28;20035;-47
2021/12/30 08:14:00;;;;;;;0.43;0.43;;;13.80;99.90;;;;;;5063295;28;20029;-51
2021/12/30 08:16:27;;;;;;;0.50;0.20;;;13.80;99.90;;;;;;5057007;28;20492;-47
2021/12/30 08:18:53;;;;;;;0.30;0.30;;;13.90;99.90;;;;;;5060803;28;20024;-53
2021/12/30 08:21:20;;;;;;;0.25;0.25;;;13.90;99.90;;;;;;5067347;28;20024;-50
2021/12/30 08:23:46;;;;;;;0.50;0.50;;;13.90;99.90;;;;;;5072189;28;20092;-46
2021/12/30 08:26:12;;;;;;;0.40;0.40;;;13.90;99.90;;;;;;5066483;28;20040;-46
2021/12/30 08:28:37;;;;;;;0.65;0.40;;;13.90;99.90;;;;;;5067652;28;20614;-44
2021/12/30 08:31:03;;;;;;;0.40;0.40;;;14.00;99.90;;;;;;5053971;28;20024;-50
2021/12/30 08:33:30;;;;;;;0.40;0.40;;;14.00;99.90;;;;;;5072071;28;20491;-51
2021/12/30 08:35:55;;;;;;;1.65;0.30;;;14.00;99.90;;;;;;5071912;28;20024;-47
2021/12/30 08:38:21;;;;;;;0.35;0.35;;;14.00;99.90;;;;;;5072291;28;20444;-49
2021/12/30 08:40:47;;;;;;;0.52;0.52;;;14.10;99.90;;;;;;5054337;28;20390;-47
2021/12/30 08:43:14;;;;;;;1.58;0.40;;;14.10;99.90;;;;;;5072211;28;20422;-49
2021/12/30 08:45:40;;;;;;;0.95;0.60;;;14.10;99.90;;;;;;5071993;28;20021;-44
2021/12/30 08:48:06;;;;;;;0.30;0.30;;;14.10;99.90;;;;;;5054316;28;20119;-49
2021/12/30 08:50:33;;;;;;;0.40;0.40;;;14.20;99.90;;;;;;5053825;28;20063;-48
2021/12/30 08:52:58;;;;;;;0.47;0.47;;;14.30;99.90;;;;;;5072164;28;20107;-50
2021/12/30 08:55:24;;;;;;;0.50;0.50;;;14.30;99.90;;;;;;5072420;28;20071;-52
2021/12/30 08:57:50;;;;;;;2.00;0.65;;;14.30;99.90;;;;;;5071859;28;20024;-50
2021/12/30 09:00:29;;;;;;;1.85;0.60;;;14.30;99.90;;;;;;5072102;28;20051;-47
2021/12/30 09:02:57;;;;;;;0.50;0.50;;;14.40;99.90;;;;;;5072435;28;20453;-49
2021/12/30 09:05:24;;;;;;;0.60;0.60;;;14.50;99.90;;;;;;5072308;28;20078;-46
2021/12/30 09:07:50;;;;;;;3.25;0.50;;;14.50;99.90;;;;;;5072112;28;20024;-49
2021/12/30 09:10:18;;;;;;;0.60;0.60;;;14.50;99.90;;;;;;5072208;28;20284;-45
2021/12/30 09:12:45;;;;;;;0.60;0.60;;;14.50;99.90;;;;;;5072106;28;20031;-47
2021/12/30 09:15:16;;;;;;;2.70;0.60;;;14.50;99.90;;;;;;5072129;28;20074;-51
2021/12/30 09:17:45;;;;;;;1.58;0.60;;;14.50;99.90;;;;;;5072271;28;20124;-48
2021/12/30 09:20:11;;;;;;;0.40;0.40;;;14.50;99.90;;;;;;5071466;28;20103;-49
2021/12/30 09:22:37;;;;;;;0.50;0.50;;;14.60;99.90;;;;;;5054359;28;20024;-52
2021/12/30 09:25:06;;;;;;;0.52;0.38;;;14.60;99.90;;;;;;5071944;28;20020;-48
2021/12/30 09:27:40;;;;;;;0.52;0.40;;;14.60;99.90;;;;;;5072200;28;20032;-48
2021/12/30 09:30:10;;;;;;;1.13;0.55;;;14.60;99.90;;;;;;5071381;28;20396;-47
2021/12/30 09:32:36;;;;;;;3.67;0.80;;;14.70;99.90;;;;;;5072308;28;20052;-47
2021/12/30 09:35:03;;;;;;;0.50;0.50;;;14.70;99.90;;;;;;5071798;28;20060;-47
2021/12/30 09:37:28;;;;;;;0.57;0.57;;;14.70;99.90;;;;;;5072325;28;20403;-49
2021/12/30 09:39:55;;;;;;;2.05;0.40;;;14.80;99.90;;;;;;5071247;28;20040;-49
2021/12/30 09:42:22;;;;;;;0.63;0.63;;;14.80;99.90;;;;;;5073002;28;20028;-46
2021/12/30 09:44:47;;;;;;;0.68;0.68;;;14.80;99.90;;;;;;5075445;28;20021;-45
2021/12/30 09:47:13;;;;;;;0.60;0.60;;;14.80;99.90;;;;;;5046175;28;20158;-45
2021/12/30 09:49:39;;;;;;;0.60;0.60;;;14.90;99.90;;;;;;5055753;28;20195;-46
2021/12/30 09:52:05;;;;;;;0.57;0.40;;;15.10;99.90;;;;;;5038028;28;20056;-50
2021/12/30 09:54:31;;;;;;;0.47;0.47;;;15.20;99.90;;;;;;5038071;28;20123;-48
2021/12/30 09:56:57;;;;;;;0.50;0.50;;;15.20;99.90;;;;;;5055626;28;20036;-47
2021/12/30 09:59:24;;;;;;;1.13;0.50;;;15.40;99.90;;;;;;5055961;28;20025;-56
2021/12/30 10:01:50;;;;;;;0.32;0.30;;;15.50;99.90;;;;;;5055618;28;20028;-50
2021/12/30 10:04:16;;;;;;;0.75;0.52;;;15.70;99.90;;;;;;5055433;28;20032;-46
2021/12/30 10:06:47;;;;;;;3.20;0.40;;;15.80;99.90;;;;;;5055754;28;20052;-47
2021/12/30 10:09:15;;;;;;;0.40;0.40;;;15.70;99.90;;;;;;5053530;28;20021;-50
2021/12/30 10:11:51;;;;;;;0.50;0.50;;;15.80;99.90;;;;;;5053978;28;20047;-50
2021/12/30 10:14:36;;;;;;;0.20;0.20;;;15.90;99.90;;;;;;5054746;28;20374;-50
2021/12/30 10:17:24;;;;;;;0.20;0.20;;;15.90;99.90;;;;;;5055538;28;20029;-51
2021/12/30 10:19:52;;;;;;;0.28;0.28;;;15.80;99.90;;;;;;5055176;28;20474;-53
2021/12/30 10:22:22;;;;;;;0.32;0.30;;;15.70;99.90;;;;;;5057938;28;20549;-51
2021/12/30 10:24:48;;;;;;;0.30;0.30;;;15.70;99.90;;;;;;5057515;28;20028;-44
2021/12/30 10:27:25;;;;;;;1.05;0.30;;;15.80;99.90;;;;;;5093142;23;21096;-52
2021/12/30 10:29:52;;;;;;;0.63;0.50;;;15.70;99.90;;;;;;5071629;28;20539;-55
2021/12/30 10:32:21;;;;;;;0.57;0.40;;;15.70;99.90;;;;;;5073021;28;20032;-54
2021/12/30 10:35:10;;;;;;;0.65;0.25;;;15.70;99.90;;;;;;5063246;28;20028;-53
2021/12/30 10:37:38;;;;;;;0.40;0.40;;;15.70;99.90;;;;;;5070805;28;20031;-56
2021/12/30 10:40:23;;;;;;;0.45;0.45;;;15.70;99.90;;;;;;5067912;28;20498;-54
2021/12/30 10:42:48;;;;;;;0.40;0.40;;;15.70;99.90;;;;;;5055114;28;20935;-55
2021/12/30 10:45:20;;;;;;;0.40;0.40;;;15.60;99.90;;;;;;5064683;28;20071;-54
2021/12/30 10:47:52;;;;;;;0.40;0.40;;;15.60;99.90;;;;;;5072064;28;20400;-56
2021/12/30 10:50:21;;;;;;;0.40;0.40;;;15.70;99.90;;;;;;5068748;28;20082;-55
2021/12/30 10:52:55;;;;;;;1.45;0.70;;;15.70;99.90;;;;;;5067504;28;20029;-52
2021/12/30 10:55:23;;;;;;;0.40;0.40;;;15.70;99.90;;;;;;5069711;28;20028;-56
2021/12/30 10:57:49;;;;;;;0.60;0.60;;;15.80;99.90;;;;;;5068310;28;20111;-55
2021/12/30 11:00:30;;;;;;;1.20;0.50;;;15.80;99.90;;;;;;5053854;28;20523;-53
2021/12/30 11:03:15;;;;;;;0.52;0.52;;;15.80;99.90;;;;;;5053588;28;20025;-56
2021/12/30 11:06:16;;;;;;;1.52;0.80;;;15.80;99.90;;;;;;5052444;28;20021;-55
2021/12/30 11:08:42;;;;;;;0.70;0.70;;;15.80;99.90;;;;;;5068559;28;20032;-59
2021/12/30 11:11:23;;;;;;;1.20;1.02;;;15.80;99.90;;;;;;5060167;28;20181;-58
2021/12/30 11:14:14;;;;;;;0.70;0.70;;;15.80;99.90;;;;;;5054123;28;20025;-55
2021/12/30 11:17:07;;;;;;;0.73;0.73;;;15.80;99.90;;;;;;5052602;28;20056;-53
2021/12/30 11:19:38;;;;;;;1.85;0.93;;;15.80;99.90;;;;;;5048547;28;20038;-57
2021/12/30 11:22:07;;;;;;;1.80;1.30;;;15.80;99.90;;;;;;5053770;28;20028;-54
2021/12/30 11:24:34;;;;;;;1.30;1.30;;;15.80;99.90;;;;;;5052380;28;20021;-57
2021/12/30 11:27:03;;;;;;;1.40;1.30;;;15.70;99.90;;;;;;5072234;28;20021;-53
2021/12/30 11:29:30;;;;;;;2.42;0.98;;;15.70;99.90;;;;;;5067460;28;20078;-56
2021/12/30 11:31:56;;;;;;;1.33;1.00;;;15.80;99.90;;;;;;5055079;28;20116;-57
2021/12/30 11:34:23;;;;;;;3.03;1.20;;;15.80;99.90;;;;;;5053324;28;20056;-53
2021/12/30 11:36:50;;;;;;;1.25;1.25;;;15.90;99.90;;;;;;5055500;28;20453;-51
2021/12/30 11:39:20;;;;;;;1.00;1.00;;;15.90;99.90;;;;;;5051895;28;20044;-58
2021/12/30 11:41:57;;;;;;;2.13;1.25;;;16.00;99.90;;;;;;5068559;28;20031;-50
2021/12/30 11:44:48;;;;;;;1.58;1.48;;;16.10;99.90;;;;;;5071622;28;20062;-49
2021/12/30 11:47:32;;;;;;;1.20;1.20;;;16.20;99.90;;;;;;5059117;28;20033;-51
2021/12/30 11:49:58;;;;;;;2.55;1.52;;;16.20;99.90;;;;;;5061638;28;20033;-53
2021/12/30 11:52:59;;;;;;;1.60;1.50;;;16.30;99.90;;;;;;5052784;28;20515;-52
2021/12/30 11:55:59;;;;;;;1.75;1.65;;;16.30;99.90;;;;;;5042670;28;20028;-52
2021/12/30 11:58:27;;;;;;;1.80;1.70;;;16.40;99.90;;;;;;5059204;28;20033;-53
2021/12/30 12:00:55;;;;;;;2.35;2.20;;;16.40;99.90;;;;;;5070875;28;20090;-52
2021/12/30 12:03:44;;;;;;;1.85;1.75;;;16.40;99.90;;;;;;5066935;28;20517;-53
2021/12/30 12:06:26;;;;;;;2.13;2.03;;;16.40;99.90;;;;;;5051219;28;20025;-57
2021/12/30 12:09:08;;;;;;;1.80;1.70;;;16.40;99.90;;;;;;5068385;28;20435;-56
2021/12/30 12:11:55;;;;;;;1.88;1.77;;;16.40;99.90;;;;;;5060767;28;20111;-57
2021/12/30 12:14:30;;;;;;;2.08;1.88;;;16.40;99.90;;;;;;5062799;28;20036;-55
2021/12/30 12:17:01;;;;;;;1.80;1.70;;;16.30;99.90;;;;;;5052941;28;20091;-56
2021/12/30 12:19:42;;;;;;;1.80;1.70;;;16.30;99.90;;;;;;5052963;28;20025;-53
2021/12/30 12:22:25;;;;;;;2.05;1.85;;;16.30;99.90;;;;;;5054745;28;20031;-54
2021/12/30 12:25:07;;;;;;;2.28;1.85;;;16.30;99.90;;;;;;5054661;28;20079;-54
2021/12/30 12:27:42;;;;;;;1.90;1.80;;;16.30;99.90;;;;;;5070955;28;20021;-56
2021/12/30 12:30:21;;;;;;;1.33;1.30;;;16.30;99.90;;;;;;5058094;28;20056;-55
2021/12/30 12:32:47;;;;;;;1.70;1.60;;;16.30;99.90;;;;;;5068317;28;20021;-57
2021/12/30 12:35:18;;;;;;;1.90;1.80;;;16.30;99.90;;;;;;5061203;28;20077;-58
2021/12/30 12:37:47;;;;;;;1.67;1.58;;;16.30;99.90;;;;;;5070721;28;20020;-59
2021/12/30 12:40:23;;;;;;;52.58;34.00;;;16.30;99.90;;;;;;5071378;28;20025;-57
2021/12/30 12:42:48;;;;;;;9.55;5.30;;;16.20;99.90;;;;;;5072079;28;20112;-59
2021/12/30 12:45:40;;;;;;;1.40;1.40;;;16.20;99.90;;;;;;5072046;28;20055;-55
2021/12/30 12:48:18;;;;;;;1.67;1.58;;;16.20;99.90;;;;;;5071974;28;20024;-57
2021/12/30 12:50:45;;;;;;;1.75;1.65;;;16.20;99.90;;;;;;5071202;28;20025;-56
2021/12/30 12:53:23;;;;;;;1.30;1.27;;;16.20;99.90;;;;;;5071591;28;20029;-57